createdAt,value
2022-09-04T00:02:17.034Z,100176.94
2022-09-04T00:05:05.238Z,100176.94
2022-09-04T00:07:53.241Z,100180.69
2022-09-04T00:10:45.929Z,100180.13
2022-09-04T00:13:23.885Z,100184.44
2022-09-04T00:16:09.564Z,100186.09
2022-09-04T00:18:49.464Z,100187.13
2022-09-04T00:21:26.305Z,100176.34
2022-09-04T00:23:59.737Z,100197.59
2022-09-04T00:26:42.424Z,100195.97
2022-09-04T00:29:20.970Z,100204.16
2022-09-04T00:31:54.048Z,100204.50
2022-09-04T00:34:55.679Z,100204.75
2022-09-04T00:37:28.997Z,100202.03
2022-09-04T00:40:01.568Z,100209.56
2022-09-04T00:43:06.983Z,100207.91
2022-09-04T00:45:52.509Z,100211.66
2022-09-04T00:48:55.628Z,100210.00
2022-09-04T00:51:37.197Z,100205.66
2022-09-04T00:54:48.109Z,100208.34
2022-09-04T00:57:44.410Z,100217.53
2022-09-04T01:00:17.070Z,100213.41
2022-09-04T01:03:07.773Z,100214.69
2022-09-04T01:05:59.522Z,100199.88
2022-09-04T01:08:56.210Z,100214.09
2022-09-04T01:11:56.328Z,100212.44
2022-09-04T01:14:40.099Z,100213.50
2022-09-04T01:17:17.893Z,100210.44
2022-09-04T01:19:55.917Z,100221.47
2022-09-04T01:22:41.313Z,100219.00
2022-09-04T01:25:29.622Z,100215.69
2022-09-04T01:28:04.838Z,100222.75
2022-09-04T01:30:47.568Z,100215.47
2022-09-04T01:33:30.074Z,100225.69
2022-09-04T01:36:22.796Z,100217.22
2022-09-04T01:38:59.927Z,100218.75
2022-09-04T01:41:54.334Z,100231.41
2022-09-04T01:44:20.736Z,100226.22
2022-09-04T01:47:03.083Z,100228.91
2022-09-04T01:49:43.361Z,100241.00
2022-09-04T01:52:36.356Z,100240.66
2022-09-04T01:55:13.541Z,100237.59
2022-09-04T01:58:11.149Z,100228.75
2022-09-04T02:00:57.586Z,100234.38
2022-09-04T02:03:50.513Z,100246.78
2022-09-04T02:06:37.933Z,100256.78
2022-09-04T02:09:24.556Z,100261.34
2022-09-04T02:12:12.024Z,100262.59
2022-09-04T02:14:58.710Z,100265.75
2022-09-04T02:17:56.010Z,100265.38
2022-09-04T02:20:28.069Z,100245.00
2022-09-04T02:23:15.358Z,100272.06
2022-09-04T02:25:50.887Z,100274.78
2022-09-04T02:28:29.431Z,100276.88
2022-09-04T02:31:19.967Z,100275.22
2022-09-04T02:34:28.489Z,100274.41
2022-09-04T02:37:03.900Z,100270.25
2022-09-04T02:39:52.417Z,100256.53
2022-09-04T02:42:33.673Z,100276.31
2022-09-04T02:45:24.153Z,100278.19
2022-09-04T02:47:55.687Z,100276.41
2022-09-04T02:50:34.117Z,100278.03
2022-09-04T02:53:25.932Z,100279.09
2022-09-04T02:56:09.535Z,100287.19
2022-09-04T02:59:03.255Z,100276.63
2022-09-04T03:01:57.411Z,100291.72
2022-09-04T03:04:49.899Z,100285.75
2022-09-04T03:07:31.585Z,100283.28
2022-09-04T03:10:03.710Z,100289.13
2022-09-04T03:12:47.649Z,100294.75
2022-09-04T03:15:29.143Z,100300.34
2022-09-04T03:18:24.887Z,100295.41
2022-09-04T03:20:59.294Z,100295.03
2022-09-04T03:23:39.610Z,100297.13
2022-09-04T03:26:29.725Z,100289.47
2022-09-04T03:29:11.693Z,100286.78
2022-09-04T03:32:15.135Z,100265.38
2022-09-04T03:35:06.102Z,100291.81
2022-09-04T03:38:13.629Z,100288.50
2022-09-04T03:40:45.585Z,100286.25
2022-09-04T03:43:41.349Z,100293.53
2022-09-04T03:46:49.242Z,100294.78
2022-09-04T03:49:56.937Z,100298.75
2022-09-04T03:53:00.523Z,100301.44
2022-09-04T03:55:55.027Z,100302.69
2022-09-04T03:58:47.273Z,100311.59
2022-09-04T04:01:24.701Z,100303.34
2022-09-04T04:04:03.111Z,100312.28
2022-09-04T04:06:53.729Z,100312.72
2022-09-04T04:09:33.558Z,100308.59
2022-09-04T04:12:18.982Z,100309.88
2022-09-04T04:14:59.324Z,100312.78
2022-09-04T04:18:02.157Z,100307.44
2022-09-04T04:20:44.421Z,100316.13
2022-09-04T04:23:46.800Z,100317.19
2022-09-04T04:27:00.805Z,100330.66
2022-09-04T04:29:55.666Z,100334.97
2022-09-04T04:32:37.317Z,100326.28
2022-09-04T04:35:08.582Z,100335.44
2022-09-04T04:37:56.142Z,100343.13
2022-09-04T04:40:45.257Z,100330.53
2022-09-04T04:43:44.409Z,100339.38
2022-09-04T04:46:20.176Z,100343.13
2022-09-04T04:49:05.065Z,100348.50
2022-09-04T04:51:50.773Z,100318.81
2022-09-04T04:54:42.344Z,100321.72
2022-09-04T04:57:13.075Z,100357.63
2022-09-04T05:00:07.649Z,100362.19
2022-09-04T05:02:53.094Z,100361.34
2022-09-04T05:05:41.540Z,100356.34
2022-09-04T05:08:22.690Z,100369.59
2022-09-04T05:10:56.376Z,100369.81
2022-09-04T05:13:32.641Z,100356.84
2022-09-04T05:16:35.853Z,100370.81
2022-09-04T05:19:15.616Z,100381.13
2022-09-04T05:22:09.174Z,100389.00
2022-09-04T05:24:54.155Z,100391.25
2022-09-04T05:27:22.318Z,100399.72
2022-09-04T05:29:58.176Z,100406.56
2022-09-04T05:32:32.482Z,100404.47
2022-09-04T05:35:17.699Z,100410.47
2022-09-04T05:37:53.368Z,100406.28
2022-09-04T05:40:19.804Z,100412.88
2022-09-04T05:43:08.065Z,100411.44
2022-09-04T05:45:52.401Z,100417.00
2022-09-04T05:48:26.108Z,100426.53
2022-09-04T05:51:22.487Z,100428.78
2022-09-04T05:54:01.215Z,100438.88
2022-09-04T05:56:45.456Z,100436.19
2022-09-04T05:59:31.872Z,100427.84
2022-09-04T06:02:35.584Z,100433.59
2022-09-04T06:05:24.277Z,100439.16
2022-09-04T06:07:50.573Z,100441.41
2022-09-04T06:10:31.069Z,100450.47
2022-09-04T06:13:31.512Z,100452.34
2022-09-04T06:16:08.018Z,100450.63
2022-09-04T06:18:49.148Z,100447.91
2022-09-04T06:21:56.638Z,100449.06
2022-09-04T06:24:39.651Z,100459.56
2022-09-04T06:27:17.463Z,100457.03
2022-09-04T06:30:05.145Z,100464.00
2022-09-04T06:32:53.367Z,100466.00
2022-09-04T06:35:23.720Z,100467.81
2022-09-04T06:38:02.253Z,100471.28
2022-09-04T06:41:10.745Z,100474.94
2022-09-04T06:44:12.456Z,100483.34
2022-09-04T06:46:51.619Z,100489.25
2022-09-04T06:49:19.040Z,100493.97
2022-09-04T06:52:03.096Z,100482.50
2022-09-04T06:54:56.020Z,100493.44
2022-09-04T06:57:47.965Z,100495.81
2022-09-04T07:00:17.064Z,100497.66
2022-09-04T07:03:02.739Z,100498.84
2022-09-04T07:05:36.101Z,100495.47
2022-09-04T07:08:13.088Z,100500.56
2022-09-04T07:10:58.765Z,100500.47
2022-09-04T07:13:49.160Z,100494.72
2022-09-04T07:16:41.008Z,100507.31
2022-09-04T07:19:33.021Z,100503.44
2022-09-04T07:22:18.920Z,100514.53
2022-09-04T07:25:11.662Z,100497.72
2022-09-04T07:28:01.954Z,100516.56
2022-09-04T07:30:35.857Z,100518.59
2022-09-04T07:33:11.540Z,100514.84
2022-09-04T07:35:56.268Z,100519.09
2022-09-04T07:38:34.929Z,100519.59
2022-09-04T07:41:10.528Z,100526.75
2022-09-04T07:44:04.060Z,100522.91
2022-09-04T07:46:48.778Z,100529.34
2022-09-04T07:49:36.684Z,100534.53
2022-09-04T07:52:19.845Z,100537.34
2022-09-04T07:55:06.457Z,100530.50
2022-09-04T07:58:03.163Z,100540.75
2022-09-04T08:00:39.592Z,100544.50
2022-09-04T08:03:17.519Z,100540.81
2022-09-04T08:06:11.622Z,100548.94
2022-09-04T08:08:52.172Z,100550.00
2022-09-04T08:11:39.865Z,100538.50
2022-09-04T08:14:31.793Z,100549.53
2022-09-04T08:17:24.498Z,100539.72
2022-09-04T08:20:28.983Z,100549.69
2022-09-04T08:23:08.598Z,100550.13
2022-09-04T08:26:17.765Z,100557.38
2022-09-04T08:28:47.296Z,100557.88
2022-09-04T08:31:34.390Z,100562.34
2022-09-04T08:34:08.804Z,100568.94
2022-09-04T08:36:53.499Z,100569.59
2022-09-04T08:39:36.480Z,100565.06
2022-09-04T08:42:42.654Z,100564.50
2022-09-04T08:45:27.162Z,100579.44
2022-09-04T08:48:02.803Z,100575.63
2022-09-04T08:50:32.091Z,100586.94
2022-09-04T08:53:42.943Z,100588.03
2022-09-04T08:56:26.283Z,100587.81
2022-09-04T08:59:10.993Z,100589.00
2022-09-04T09:02:15.001Z,100592.03
2022-09-04T09:05:16.411Z,100607.06
2022-09-04T09:07:48.545Z,100602.44
2022-09-04T09:11:05.608Z,100596.28
2022-09-04T09:13:46.634Z,100592.34
2022-09-04T09:16:24.709Z,100575.69
2022-09-04T09:19:19.650Z,100593.28
2022-09-04T09:22:05.925Z,100595.81
2022-09-04T09:24:43.740Z,100588.50
2022-09-04T09:27:34.818Z,100594.56
2022-09-04T09:30:27.476Z,100604.09
2022-09-04T09:33:21.554Z,100540.63
2022-09-04T09:36:09.126Z,100587.94
2022-09-04T09:38:38.830Z,100592.16
2022-09-04T09:41:53.297Z,100598.97
2022-09-04T09:44:53.843Z,100602.09
2022-09-04T09:47:44.953Z,100596.81
2022-09-04T09:50:34.293Z,100596.50
2022-09-04T09:53:09.653Z,100597.22
2022-09-04T09:55:58.445Z,100591.22
2022-09-04T09:58:49.853Z,100587.81
2022-09-04T10:01:48.237Z,100587.34
2022-09-04T10:04:21.441Z,100597.75
2022-09-04T10:07:06.571Z,100588.03
2022-09-04T10:09:59.805Z,100595.22
2022-09-04T10:12:44.689Z,100599.00
2022-09-04T10:15:41.613Z,100600.34
2022-09-04T10:18:45.269Z,100601.44
2022-09-04T10:21:48.662Z,100597.75
2022-09-04T10:24:45.341Z,100596.47
2022-09-04T10:27:43.954Z,100595.00
2022-09-04T10:30:34.861Z,100596.16
2022-09-04T10:33:11.321Z,100599.84
2022-09-04T10:35:59.592Z,100596.41
2022-09-04T10:39:04.311Z,100588.88
2022-09-04T10:42:15.458Z,100592.56
2022-09-04T10:45:07.089Z,100579.19
2022-09-04T10:47:59.197Z,100599.00
2022-09-04T10:51:05.647Z,100598.22
2022-09-04T10:54:30.342Z,100592.91
2022-09-04T10:57:28.216Z,100596.16
2022-09-04T11:00:20.737Z,100600.94
2022-09-04T11:03:14.773Z,100597.47
2022-09-04T11:06:02.334Z,100598.09
2022-09-04T11:08:36.037Z,100593.56
2022-09-04T11:11:18.258Z,100588.41
2022-09-04T11:14:20.521Z,100597.69
2022-09-04T11:17:16.080Z,100594.56
2022-09-04T11:20:28.212Z,100589.97
2022-09-04T11:23:04.995Z,100580.00
2022-09-04T11:26:05.866Z,100585.44
2022-09-04T11:28:58.362Z,100584.44
2022-09-04T11:31:48.288Z,100586.97
2022-09-04T11:34:24.295Z,100583.13
2022-09-04T11:37:15.909Z,100585.75
2022-09-04T11:39:54.545Z,100575.69
2022-09-04T11:42:33.361Z,100589.44
2022-09-04T11:45:24.092Z,100582.81
2022-09-04T11:48:12.133Z,100575.19
2022-09-04T11:51:00.265Z,100567.50
2022-09-04T11:54:00.369Z,100580.78
2022-09-04T11:56:38.680Z,100583.44
2022-09-04T11:59:16.825Z,100585.31
2022-09-04T12:02:10.223Z,100583.78
2022-09-04T12:04:51.153Z,100585.63
2022-09-04T12:07:17.479Z,100585.28
2022-09-04T12:09:51.268Z,100584.53
2022-09-04T12:12:36.129Z,100588.56
2022-09-04T12:15:08.718Z,100589.69
2022-09-04T12:18:17.242Z,100587.31
2022-09-04T12:20:51.420Z,100580.03
2022-09-04T12:23:18.923Z,100579.22
2022-09-04T12:26:12.719Z,100581.44
2022-09-04T12:29:02.561Z,100581.09
2022-09-04T12:31:51.669Z,100581.59
2022-09-04T12:34:18.405Z,100577.28
2022-09-04T12:37:03.448Z,100568.22
2022-09-04T12:39:54.751Z,100574.38
2022-09-04T12:42:33.640Z,100573.69
2022-09-04T12:45:28.385Z,100570.16
2022-09-04T12:48:33.166Z,100582.34
2022-09-04T12:51:09.911Z,100570.13
2022-09-04T12:54:03.344Z,100570.97
2022-09-04T12:56:52.989Z,100576.25
2022-09-04T12:59:40.417Z,100573.88
2022-09-04T13:02:27.781Z,100581.56
2022-09-04T13:05:25.010Z,100580.19
2022-09-04T13:08:03.479Z,100582.44
2022-09-04T13:10:41.282Z,100584.41
2022-09-04T13:13:33.798Z,100583.56
2022-09-04T13:16:09.004Z,100586.63
2022-09-04T13:18:44.781Z,100579.47
2022-09-04T13:21:35.000Z,100575.06
2022-09-04T13:24:44.532Z,100587.91
2022-09-04T13:27:26.597Z,100581.56
2022-09-04T13:30:05.561Z,100592.94
2022-09-04T13:32:41.793Z,100582.88
2022-09-04T13:35:31.401Z,100584.91
2022-09-04T13:38:24.225Z,100585.06
2022-09-04T13:41:09.318Z,100578.59
2022-09-04T13:44:00.565Z,100592.06
2022-09-04T13:46:40.327Z,100591.44
2022-09-04T13:49:14.767Z,100589.00
2022-09-04T13:51:59.437Z,100595.31
2022-09-04T13:54:43.842Z,100598.59
2022-09-04T13:57:16.957Z,100597.78
2022-09-04T13:59:49.919Z,100594.72
2022-09-04T14:02:24.376Z,100596.44
2022-09-04T14:05:16.398Z,100601.94
2022-09-04T14:07:47.449Z,100608.13
2022-09-04T14:10:22.758Z,100605.03
2022-09-04T14:13:23.116Z,100604.28
2022-09-04T14:16:15.846Z,100593.72
2022-09-04T14:19:06.793Z,100597.03
2022-09-04T14:22:18.780Z,100604.44
2022-09-04T14:25:21.209Z,100603.66
2022-09-04T14:27:57.233Z,100597.47
2022-09-04T14:30:23.962Z,100592.06
2022-09-04T14:33:03.876Z,100593.69
2022-09-04T14:36:21.169Z,100594.44
2022-09-04T14:39:25.362Z,100591.84
2022-09-04T14:42:22.375Z,100597.13
2022-09-04T14:45:12.508Z,100591.75
2022-09-04T14:47:54.679Z,100596.94
2022-09-04T14:50:28.244Z,100574.00
2022-09-04T14:53:00.752Z,100600.19
2022-09-04T14:55:31.336Z,100594.00
2022-09-04T14:58:08.849Z,100590.41
2022-09-04T15:00:57.153Z,100590.63
2022-09-04T15:03:30.800Z,100584.84
2022-09-04T15:06:05.615Z,100580.09
2022-09-04T15:08:40.010Z,100587.94
2022-09-04T15:11:13.125Z,100586.84
2022-09-04T15:13:51.663Z,100579.09
2022-09-04T15:16:35.569Z,100581.44
2022-09-04T15:19:28.665Z,100581.34
2022-09-04T15:22:11.536Z,100581.25
2022-09-04T15:24:55.624Z,100560.34
2022-09-04T15:27:35.157Z,100557.69
2022-09-04T15:30:11.245Z,100574.78
2022-09-04T15:32:42.514Z,100574.25
2022-09-04T15:35:26.318Z,100558.06
2022-09-04T15:38:20.915Z,100572.13
2022-09-04T15:41:12.797Z,100574.59
2022-09-04T15:43:43.778Z,100576.72
2022-09-04T15:46:21.053Z,100573.97
2022-09-04T15:49:09.169Z,100573.47
2022-09-04T15:51:46.227Z,100566.34
2022-09-04T15:54:32.153Z,100573.38
2022-09-04T15:57:18.279Z,100563.66
2022-09-04T16:00:01.305Z,100572.38
2022-09-04T16:02:59.332Z,100573.88
2022-09-04T16:05:41.499Z,100580.03
2022-09-04T16:08:29.545Z,100570.06
2022-09-04T16:11:11.541Z,100572.03
2022-09-04T16:13:45.690Z,100569.38
2022-09-04T16:16:44.445Z,100562.06
2022-09-04T16:19:38.485Z,100573.72
2022-09-04T16:22:26.084Z,100573.28
2022-09-04T16:25:31.931Z,100572.22
2022-09-04T16:28:31.639Z,100558.59
2022-09-04T16:31:04.658Z,100571.81
2022-09-04T16:33:40.117Z,100570.56
2022-09-04T16:36:11.358Z,100546.59
2022-09-04T16:38:52.406Z,100567.91
2022-09-04T16:41:37.659Z,100555.94
2022-09-04T16:44:36.958Z,100568.25
2022-09-04T16:47:11.072Z,100566.16
2022-09-04T16:49:59.368Z,100575.50
2022-09-04T16:52:31.855Z,100575.25
2022-09-04T16:55:31.215Z,100572.34
2022-09-04T16:58:06.217Z,100574.34
2022-09-04T17:01:00.318Z,100567.59
2022-09-04T17:04:13.522Z,100564.94
2022-09-04T17:06:54.107Z,100559.09
2022-09-04T17:09:28.454Z,100569.25
2022-09-04T17:12:03.096Z,100560.91
2022-09-04T17:14:43.025Z,100545.72
2022-09-04T17:17:31.209Z,100554.47
2022-09-04T17:20:00.524Z,100556.78
2022-09-04T17:26:26.805Z,100547.03
2022-09-04T17:29:08.798Z,100559.50
2022-09-04T17:29:19.383Z,100559.94
2022-09-04T17:31:52.935Z,100552.19
2022-09-04T17:40:34.778Z,100551.16
2022-09-04T17:40:55.519Z,100539.22
2022-09-04T17:41:35.843Z,100554.03
2022-09-04T17:44:01.828Z,100556.28
2022-09-04T17:46:36.531Z,100551.41
2022-09-04T17:49:29.406Z,100554.75
2022-09-04T17:52:07.078Z,100553.16
2022-09-04T17:54:40.068Z,100553.47
2022-09-04T17:57:14.693Z,100559.75
2022-09-04T17:59:52.883Z,100558.97
2022-09-04T18:02:57.158Z,100554.09
2022-09-04T18:05:51.499Z,100557.09
2022-09-04T18:08:20.340Z,100559.84
2022-09-04T18:10:56.009Z,100560.69
2022-09-04T18:13:40.546Z,100562.88
2022-09-04T18:16:14.797Z,100573.22
2022-09-04T18:18:58.659Z,100569.66
2022-09-04T18:21:45.901Z,100570.47
2022-09-04T18:24:21.209Z,100572.91
2022-09-04T18:26:56.640Z,100577.53
2022-09-04T18:33:22.537Z,100583.25
2022-09-04T18:37:22.868Z,100588.06
2022-09-04T18:37:26.558Z,100589.78
2022-09-04T18:38:34.292Z,100591.56
2022-09-04T18:43:33.254Z,100604.63
2022-09-04T18:50:25.839Z,100602.13
2022-09-04T18:50:31.759Z,100601.81
2022-09-04T18:50:43.338Z,100603.72
2022-09-04T18:52:58.791Z,100609.69
2022-09-04T18:55:42.377Z,100613.50
2022-09-04T18:58:11.749Z,100615.09
2022-09-04T19:00:44.358Z,100624.34
2022-09-04T19:03:18.853Z,100605.69
2022-09-04T19:05:48.779Z,100627.00
2022-09-04T19:08:25.426Z,100630.22
2022-09-04T19:10:59.986Z,100632.09
2022-09-04T19:13:29.808Z,100625.75
2022-09-04T19:16:22.517Z,100628.44
2022-09-04T19:18:55.278Z,100625.09
2022-09-04T19:21:34.109Z,100620.72
2022-09-04T19:24:16.146Z,100624.78
2022-09-04T19:26:52.138Z,100628.25
2022-09-04T19:29:30.527Z,100635.22
2022-09-04T19:32:09.438Z,100636.28
2022-09-04T19:34:41.920Z,100634.00
2022-09-04T19:37:54.387Z,100622.50
2022-09-04T19:46:04.308Z,100627.06
2022-09-04T19:46:15.503Z,100619.94
2022-09-04T19:53:17.629Z,100615.97
2022-09-04T19:53:24.221Z,100616.72
2022-09-04T19:55:25.008Z,100622.97
2022-09-04T19:58:30.793Z,100631.69
2022-09-04T20:01:00.623Z,100631.06
2022-09-04T20:03:36.324Z,100632.66
2022-09-04T20:06:21.570Z,100635.06
2022-09-04T20:09:11.749Z,100634.22
2022-09-04T20:11:46.001Z,100639.41
2022-09-04T20:14:21.735Z,100637.78
2022-09-04T20:17:21.834Z,100635.88
2022-09-04T20:19:53.952Z,100630.38
2022-09-04T20:22:32.875Z,100637.53
2022-09-04T20:25:08.107Z,100640.50
2022-09-04T20:27:41.704Z,100640.19
2022-09-04T20:30:12.687Z,100639.84
2022-09-04T20:32:55.750Z,100646.63
2022-09-04T20:35:44.820Z,100619.19
2022-09-04T20:38:32.318Z,100648.97
2022-09-04T20:41:15.145Z,100656.25
2022-09-04T20:43:57.155Z,100646.19
2022-09-04T20:52:40.708Z,100647.19
2022-09-04T20:52:48.889Z,100643.41
2022-09-04T20:52:51.808Z,100649.66
2022-09-04T20:55:50.663Z,100655.25
2022-09-04T21:03:10.162Z,100654.44
2022-09-04T21:03:19.849Z,100648.59
2022-09-04T21:05:00.401Z,100651.88
2022-09-04T21:07:41.164Z,100665.16
2022-09-04T21:10:35.349Z,100636.94
2022-09-04T21:13:15.237Z,100661.22
2022-09-04T21:15:52.210Z,100665.66
2022-09-04T21:18:40.049Z,100661.91
2022-09-04T21:21:28.513Z,100667.91
2022-09-04T21:24:22.225Z,100661.91
2022-09-04T21:27:01.693Z,100657.75
2022-09-04T21:29:46.907Z,100656.88
2022-09-04T21:32:29.644Z,100660.94
2022-09-04T21:35:02.978Z,100660.25
2022-09-04T21:37:41.526Z,100661.72
2022-09-04T21:40:51.550Z,100664.34
2022-09-04T21:43:35.532Z,100655.41
2022-09-04T21:46:33.561Z,100665.94
2022-09-04T21:49:25.701Z,100668.31
2022-09-04T21:51:59.261Z,100672.00
2022-09-04T21:57:31.481Z,100665.94
2022-09-04T22:02:26.362Z,100669.84
2022-09-04T22:02:43.608Z,100664.84
2022-09-04T22:04:21.001Z,100659.91
2022-09-04T22:09:54.173Z,100664.53
2022-09-04T22:13:37.379Z,100668.78
2022-09-04T22:13:39.703Z,100665.72
2022-09-04T22:16:34.860Z,100660.44
2022-09-04T22:19:16.730Z,100659.16
2022-09-04T22:22:03.290Z,100665.63
2022-09-04T22:25:06.134Z,100652.63
2022-09-04T22:28:08.596Z,100666.22
2022-09-04T22:30:52.096Z,100668.44
2022-09-04T22:34:14.321Z,100670.25
2022-09-04T22:36:42.572Z,100662.81
2022-09-04T22:39:51.613Z,100672.53
2022-09-04T22:42:57.107Z,100671.72
2022-09-04T22:45:47.370Z,100675.38
2022-09-04T22:48:28.945Z,100669.03
2022-09-04T22:50:58.378Z,100673.84
2022-09-04T22:53:43.008Z,100670.78
2022-09-04T22:56:24.345Z,100664.22
2022-09-04T22:59:25.924Z,100673.56
2022-09-04T23:02:13.867Z,100670.38
2022-09-04T23:05:04.823Z,100677.03
2022-09-04T23:13:43.799Z,100675.25
2022-09-04T23:14:01.607Z,100682.81
2022-09-04T23:14:06.631Z,100680.84
2022-09-04T23:17:03.755Z,100684.03
2022-09-04T23:25:31.034Z,100686.16
2022-09-04T23:26:46.033Z,100685.81
2022-09-04T23:26:59.345Z,100686.28
2022-09-04T23:29:57.645Z,100677.56
2022-09-04T23:32:40.293Z,100689.94
2022-09-04T23:35:40.125Z,100679.91
2022-09-04T23:38:33.537Z,100684.50
2022-09-04T23:41:17.718Z,100691.25
2022-09-04T23:43:46.989Z,100686.06
2022-09-04T23:46:24.885Z,100678.97
2022-09-04T23:49:09.679Z,100672.97
2022-09-04T23:51:48.169Z,100678.88
2022-09-04T23:54:36.328Z,100683.69
2022-09-04T23:57:19.821Z,100680.50
